Time;durP1;ratioP1;P1;durP2;ratioP2;P2;SDS_P1;SDS_P2;PMS_P1;PMS_P2;Temp;Humidity;BMP_temperature;BMP_pressure;BME280_temperature;BME280_humidity;BME280_pressure;Samples;Min_cycle;Max_cycle;Signal;HPM_P1;HPM_P2
2021/12/13 00:01:25;;;;;;;3.70;3.20;;;;;;;;;;5095840;28;20542;-77
2021/12/13 00:03:55;;;;;;;3.40;2.70;;;;;;;;;;5095051;28;20440;-73
2021/12/13 00:06:24;;;;;;;3.80;3.40;;;;;;;;;;5093788;28;20445;-76
2021/12/13 00:08:54;;;;;;;3.20;2.63;;;;;;;;;;5094281;28;20528;-77
2021/12/13 00:11:22;;;;;;;4.40;3.10;;;;;;;;;;5088484;28;20569;-76
2021/12/13 00:13:51;;;;;;;5.17;3.10;;;;;;;;;;5078263;28;20487;-76
2021/12/13 00:16:24;;;;;;;3.90;3.37;;;;;;;;;;5091733;28;20483;-75
2021/12/13 00:18:55;;;;;;;4.57;3.10;;;;;;;;;;5080035;28;20488;-77
2021/12/13 00:21:24;;;;;;;3.60;2.77;;;;;;;;;;5080240;28;20528;-73
2021/12/13 00:23:55;;;;;;;4.80;3.67;;;;;;;;;;5091044;28;20440;-74
2021/12/13 00:26:24;;;;;;;3.10;2.60;;;;;;;;;;5086625;28;20448;-76
2021/12/13 00:28:51;;;;;;;11.30;3.37;;;;;;;;;;5071658;28;20452;-77
2021/12/13 00:31:24;;;;;;;5.00;3.00;;;;;;;;;;5086269;28;20478;-77
2021/12/13 00:33:57;;;;;;;6.60;3.20;;;;;;;;;;5090512;28;20449;-76
2021/12/13 00:36:29;;;;;;;6.83;3.17;;;;;;;;;;5091682;28;20879;-76
2021/12/13 00:39:00;;;;;;;3.77;3.37;;;;;;;;;;5088916;28;20451;-76
2021/12/13 00:41:30;;;;;;;5.87;3.27;;;;;;;;;;5089844;28;20476;-76
2021/12/13 00:43:59;;;;;;;3.80;3.20;;;;;;;;;;5089731;28;20523;-76
2021/12/13 00:46:29;;;;;;;6.80;4.77;;;;;;;;;;5078470;28;20520;-77
2021/12/13 00:48:58;;;;;;;4.70;3.23;;;;;;;;;;5090096;28;20845;-75
2021/12/13 00:51:27;;;;;;;4.50;3.77;;;;;;;;;;5091249;28;20571;-74
2021/12/13 00:53:56;;;;;;;4.73;3.00;;;;;;;;;;5090462;28;20932;-77
2021/12/13 00:56:42;;;;;;;3.40;2.30;;;;;;;;;;5084244;28;20444;-77
2021/12/13 00:59:11;;;;;;;4.67;3.67;;;;;;;;;;5090402;28;20436;-77
2021/12/13 01:01:39;;;;;;;4.90;3.53;;;;;;;;;;5090169;28;20448;-77
2021/12/13 01:04:08;;;;;;;7.63;3.50;;;;;;;;;;5090115;28;20468;-77
2021/12/13 01:06:57;;;;;;;7.03;3.60;;;;;;;;;;5091237;28;20826;-77
2021/12/13 01:09:39;;;;;;;4.30;3.30;;;;;;;;;;5081088;28;20801;-76
2021/12/13 01:12:08;;;;;;;7.43;3.27;;;;;;;;;;5078382;28;20886;-77
2021/12/13 01:14:57;;;;;;;4.00;3.60;;;;;;;;;;5090720;28;20944;-77
2021/12/13 01:17:38;;;;;;;3.90;3.17;;;;;;;;;;5079448;28;20467;-76
2021/12/13 01:20:08;;;;;;;5.93;2.67;;;;;;;;;;5083492;28;20445;-77
2021/12/13 01:22:46;;;;;;;6.67;3.63;;;;;;;;;;5091009;28;20553;-77
2021/12/13 01:25:23;;;;;;;7.23;3.80;;;;;;;;;;5082996;28;20445;-77
2021/12/13 01:27:55;;;;;;;4.70;3.83;;;;;;;;;;5079910;28;20780;-76
2021/12/13 01:30:23;;;;;;;8.40;3.73;;;;;;;;;;5078529;28;20543;-76
2021/12/13 01:32:54;;;;;;;5.10;3.93;;;;;;;;;;5084407;28;20567;-77
2021/12/13 01:35:22;;;;;;;7.53;3.70;;;;;;;;;;5080080;28;20441;-77
2021/12/13 01:37:52;;;;;;;3.93;2.57;;;;;;;;;;5089737;28;20841;-77
2021/12/13 01:40:22;;;;;;;4.70;3.50;;;;;;;;;;5074699;28;21082;-77
2021/12/13 01:42:56;;;;;;;6.53;4.27;;;;;;;;;;5089523;28;20463;-77
2021/12/13 01:45:23;;;;;;;4.07;3.77;;;;;;;;;;5090482;28;20436;-77
2021/12/13 01:47:52;;;;;;;7.07;3.83;;;;;;;;;;5090173;28;20979;-77
2021/12/13 01:50:21;;;;;;;6.00;3.53;;;;;;;;;;5090376;28;20447;-76
2021/12/13 01:52:51;;;;;;;6.07;4.43;;;;;;;;;;5090823;28;20516;-78
2021/12/13 01:55:21;;;;;;;4.40;3.50;;;;;;;;;;5082723;28;20484;-74
2021/12/13 01:57:53;;;;;;;5.20;4.00;;;;;;;;;;5081524;28;20432;-76
2021/12/13 02:00:32;;;;;;;7.50;3.60;;;;;;;;;;5089762;28;20526;-76
2021/12/13 02:03:01;;;;;;;8.03;4.20;;;;;;;;;;5093850;28;20447;-77
2021/12/13 02:05:29;;;;;;;10.90;4.80;;;;;;;;;;5093861;28;20449;-76
2021/12/13 02:07:58;;;;;;;9.53;4.20;;;;;;;;;;5093289;28;20448;-76
2021/12/13 02:10:29;;;;;;;9.87;6.20;;;;;;;;;;5089576;28;20469;-74
2021/12/13 02:12:59;;;;;;;4.63;3.83;;;;;;;;;;5092972;28;20475;-75
2021/12/13 02:18:15;;;;;;;6.43;4.00;;;;;;;;;;5088601;28;20444;-77
2021/12/13 02:20:44;;;;;;;6.93;4.27;;;;;;;;;;5093052;28;20464;-77
2021/12/13 02:23:14;;;;;;;10.37;4.33;;;;;;;;;;5093064;28;20457;-77
2021/12/13 02:25:43;;;;;;;5.60;3.80;;;;;;;;;;5093169;28;20444;-77
2021/12/13 02:28:12;;;;;;;4.60;3.40;;;;;;;;;;5092878;28;20445;-77
2021/12/13 02:30:44;;;;;;;6.70;4.07;;;;;;;;;;5096502;28;20906;-77
2021/12/13 02:33:16;;;;;;;6.57;4.50;;;;;;;;;;5102025;28;20477;-76
2021/12/13 02:35:45;;;;;;;7.43;3.57;;;;;;;;;;5109663;28;20449;-76
2021/12/13 02:38:15;;;;;;;5.50;3.90;;;;;;;;;;5112105;28;20467;-76
2021/12/13 02:40:42;;;;;;;6.90;4.23;;;;;;;;;;5106611;28;20475;-77
2021/12/13 02:43:12;;;;;;;8.00;4.50;;;;;;;;;;5096184;28;20535;-76
2021/12/13 02:45:43;;;;;;;7.27;4.67;;;;;;;;;;5094861;28;20445;-77
2021/12/13 02:48:12;;;;;;;5.10;4.40;;;;;;;;;;5099961;28;20492;-77
2021/12/13 02:50:43;;;;;;;7.23;4.77;;;;;;;;;;5097550;28;20437;-77
2021/12/13 02:53:10;;;;;;;4.47;3.83;;;;;;;;;;5096591;28;20972;-76
2021/12/13 02:55:40;;;;;;;8.27;4.10;;;;;;;;;;5093121;28;20533;-76
2021/12/13 02:58:09;;;;;;;4.53;3.73;;;;;;;;;;5086325;28;20445;-77
2021/12/13 03:00:44;;;;;;;9.20;4.53;;;;;;;;;;5089841;28;20445;-76
2021/12/13 03:03:15;;;;;;;8.20;4.63;;;;;;;;;;5072034;28;20548;-77
2021/12/13 03:05:44;;;;;;;7.20;3.97;;;;;;;;;;5090849;28;20440;-76
2021/12/13 03:08:13;;;;;;;5.87;4.03;;;;;;;;;;5092365;28;20444;-76
2021/12/13 03:10:47;;;;;;;6.83;3.50;;;;;;;;;;5092118;28;20453;-76
2021/12/13 03:13:14;;;;;;;8.63;3.90;;;;;;;;;;5092351;28;21175;-76
2021/12/13 03:15:45;;;;;;;4.67;3.50;;;;;;;;;;5080161;28;20810;-77
2021/12/13 03:18:15;;;;;;;5.50;4.20;;;;;;;;;;5087898;28;20457;-76
2021/12/13 03:20:48;;;;;;;5.83;4.33;;;;;;;;;;5091860;28;20495;-76
2021/12/13 03:23:19;;;;;;;5.10;3.97;;;;;;;;;;5091984;28;20970;-76
2021/12/13 03:26:08;;;;;;;7.30;4.70;;;;;;;;;;5092162;28;20536;-76
2021/12/13 03:28:43;;;;;;;6.00;4.40;;;;;;;;;;5092066;28;20519;-77
2021/12/13 03:31:11;;;;;;;6.77;4.20;;;;;;;;;;5091399;28;20841;-76
2021/12/13 03:33:43;;;;;;;5.43;4.40;;;;;;;;;;5091025;28;20473;-76
2021/12/13 03:36:12;;;;;;;4.77;4.17;;;;;;;;;;5091764;28;20447;-76
2021/12/13 03:38:41;;;;;;;6.37;4.40;;;;;;;;;;5087936;28;20993;-76
2021/12/13 03:41:12;;;;;;;5.20;3.83;;;;;;;;;;5085123;28;20443;-77
2021/12/13 03:43:43;;;;;;;6.20;4.40;;;;;;;;;;5092259;28;20450;-77
2021/12/13 03:46:11;;;;;;;8.53;4.40;;;;;;;;;;5091466;28;20450;-77
2021/12/13 03:48:39;;;;;;;5.60;4.27;;;;;;;;;;5092449;28;20634;-76
2021/12/13 03:51:09;;;;;;;6.07;4.23;;;;;;;;;;5089717;28;20455;-77
2021/12/13 03:53:37;;;;;;;18.23;4.53;;;;;;;;;;5083388;28;20479;-77
2021/12/13 03:56:06;;;;;;;8.53;4.33;;;;;;;;;;5090035;28;20463;-76
2021/12/13 03:58:37;;;;;;;7.07;5.17;;;;;;;;;;5088091;28;20514;-76
2021/12/13 04:01:06;;;;;;;6.20;3.90;;;;;;;;;;5085471;28;20452;-76
2021/12/13 04:03:34;;;;;;;7.13;4.10;;;;;;;;;;5086185;28;20453;-76
2021/12/13 04:06:01;;;;;;;9.07;4.80;;;;;;;;;;5088918;28;20514;-76
2021/12/13 04:08:29;;;;;;;7.47;4.93;;;;;;;;;;5092120;28;20440;-77
2021/12/13 04:10:57;;;;;;;6.43;4.20;;;;;;;;;;5084514;28;20445;-76
2021/12/13 04:13:27;;;;;;;5.53;4.50;;;;;;;;;;5091778;28;20576;-75
2021/12/13 04:16:04;;;;;;;6.50;3.70;;;;;;;;;;5091072;28;20444;-70
2021/12/13 04:21:17;;;;;;;6.67;4.53;;;;;;;;;;5087903;28;20432;-76
2021/12/13 04:23:50;;;;;;;5.43;4.40;;;;;;;;;;5077984;28;20456;-77
2021/12/13 04:26:18;;;;;;;7.40;3.40;;;;;;;;;;5086235;28;20495;-77
2021/12/13 04:28:48;;;;;;;5.63;4.70;;;;;;;;;;5081084;28;20445;-76
2021/12/13 04:31:19;;;;;;;6.27;4.50;;;;;;;;;;5081624;28;20455;-76
2021/12/13 04:33:47;;;;;;;4.93;3.53;;;;;;;;;;5086813;28;20884;-76
2021/12/13 04:36:16;;;;;;;6.30;3.83;;;;;;;;;;5091014;28;20606;-76
2021/12/13 04:38:50;;;;;;;7.60;4.30;;;;;;;;;;5089286;28;20539;-76
2021/12/13 04:41:22;;;;;;;4.00;3.60;;;;;;;;;;5087859;28;20504;-77
2021/12/13 04:43:49;;;;;;;6.27;4.43;;;;;;;;;;5087021;28;20446;-75
2021/12/13 04:46:20;;;;;;;4.50;4.10;;;;;;;;;;5081454;28;20441;-77
2021/12/13 04:48:47;;;;;;;5.60;4.10;;;;;;;;;;5084467;28;21013;-76
2021/12/13 04:51:16;;;;;;;6.17;4.53;;;;;;;;;;5087147;28;20815;-77
2021/12/13 04:53:45;;;;;;;6.27;4.60;;;;;;;;;;5084212;28;20793;-77
2021/12/13 04:56:13;;;;;;;5.40;4.10;;;;;;;;;;5083487;28;20451;-76
2021/12/13 04:58:41;;;;;;;5.37;4.57;;;;;;;;;;5079765;28;20852;-76
2021/12/13 05:01:11;;;;;;;6.57;4.80;;;;;;;;;;5090426;28;20467;-77
2021/12/13 05:03:41;;;;;;;5.53;4.60;;;;;;;;;;5090658;28;20455;-77
2021/12/13 05:06:08;;;;;;;7.43;4.47;;;;;;;;;;5090144;28;20452;-78
2021/12/13 05:08:36;;;;;;;5.10;3.90;;;;;;;;;;5091234;28;21517;-77
2021/12/13 05:11:04;;;;;;;4.63;3.67;;;;;;;;;;5084805;28;20459;-77
2021/12/13 05:13:32;;;;;;;9.93;5.40;;;;;;;;;;5090712;28;20505;-77
2021/12/13 05:16:01;;;;;;;5.43;3.97;;;;;;;;;;5086216;28;20441;-76
2021/12/13 05:18:29;;;;;;;5.67;4.67;;;;;;;;;;5076415;28;20472;-76
2021/12/13 05:21:00;;;;;;;5.13;4.40;;;;;;;;;;5081086;28;20451;-76
2021/12/13 05:23:28;;;;;;;4.93;4.20;;;;;;;;;;5088564;28;20451;-77
2021/12/13 05:25:56;;;;;;;5.73;4.13;;;;;;;;;;5079938;28;20468;-74
2021/12/13 05:28:25;;;;;;;6.50;4.00;;;;;;;;;;5076308;28;20455;-78
2021/12/13 05:30:54;;;;;;;12.10;4.90;;;;;;;;;;5093002;28;20453;-76
2021/12/13 05:33:22;;;;;;;5.37;4.07;;;;;;;;;;5092076;28;21015;-74
2021/12/13 05:35:51;;;;;;;8.73;4.13;;;;;;;;;;5074684;28;20447;-75
2021/12/13 05:38:25;;;;;;;4.80;4.17;;;;;;;;;;5080433;28;20531;-75
2021/12/13 05:40:53;;;;;;;5.50;4.63;;;;;;;;;;5094910;28;20462;-76
2021/12/13 05:43:23;;;;;;;7.93;4.87;;;;;;;;;;5094031;28;20452;-71
2021/12/13 05:45:52;;;;;;;6.83;4.10;;;;;;;;;;5094324;28;20924;-75
2021/12/13 05:48:21;;;;;;;8.17;4.37;;;;;;;;;;5093426;28;20482;-73
2021/12/13 05:50:49;;;;;;;19.70;12.93;;;;;;;;;;5094464;28;20561;-73
2021/12/13 05:53:18;;;;;;;8.53;4.30;;;;;;;;;;5093689;28;20484;-75
2021/12/13 05:55:48;;;;;;;6.30;3.80;;;;;;;;;;5094019;28;20452;-76
2021/12/13 05:58:27;;;;;;;4.73;3.90;;;;;;;;;;5093927;28;20436;-76
2021/12/13 06:00:58;;;;;;;5.70;3.60;;;;;;;;;;5093702;28;20936;-70
2021/12/13 06:03:31;;;;;;;6.27;4.77;;;;;;;;;;5093481;28;20920;-75
2021/12/13 06:06:05;;;;;;;6.40;4.27;;;;;;;;;;5080963;28;20455;-77
2021/12/13 06:08:33;;;;;;;7.50;4.40;;;;;;;;;;5094346;28;20439;-78
2021/12/13 06:11:03;;;;;;;7.20;4.80;;;;;;;;;;5085967;28;20441;-75
2021/12/13 06:13:50;;;;;;;6.90;4.83;;;;;;;;;;5093485;28;20531;-77
2021/12/13 06:16:20;;;;;;;5.27;4.77;;;;;;;;;;5080583;28;20972;-79
2021/12/13 06:19:02;;;;;;;7.67;4.93;;;;;;;;;;5083158;28;20543;-75
2021/12/13 06:21:36;;;;;;;4.67;3.80;;;;;;;;;;5086903;28;20795;-72
2021/12/13 06:24:03;;;;;;;4.70;4.10;;;;;;;;;;5093087;28;20540;-72
2021/12/13 06:26:32;;;;;;;5.63;4.30;;;;;;;;;;5093354;28;20523;-72
2021/12/13 06:29:01;;;;;;;8.90;4.63;;;;;;;;;;5092859;28;20449;-72
2021/12/13 06:31:36;;;;;;;6.80;4.57;;;;;;;;;;5092894;28;20945;-72
2021/12/13 06:34:04;;;;;;;8.67;4.07;;;;;;;;;;5093071;28;20468;-72
2021/12/13 06:36:33;;;;;;;5.93;4.60;;;;;;;;;;5093529;28;20539;-72
2021/12/13 06:39:01;;;;;;;6.17;4.70;;;;;;;;;;5092971;28;20448;-72
2021/12/13 06:41:38;;;;;;;7.50;4.40;;;;;;;;;;5092590;28;20489;-72
2021/12/13 06:44:07;;;;;;;7.90;4.80;;;;;;;;;;5093027;28;20441;-73
2021/12/13 06:46:39;;;;;;;9.23;4.87;;;;;;;;;;5080178;28;20441;-72
2021/12/13 06:49:09;;;;;;;6.87;4.60;;;;;;;;;;5092242;28;20996;-72
2021/12/13 06:51:45;;;;;;;6.83;4.93;;;;;;;;;;5092964;28;20456;-74
2021/12/13 06:54:13;;;;;;;6.90;4.97;;;;;;;;;;5092449;28;20479;-72
2021/12/13 06:56:43;;;;;;;6.43;5.00;;;;;;;;;;5093231;28;20531;-72
2021/12/13 06:59:12;;;;;;;6.30;4.87;;;;;;;;;;5092437;28;20447;-72
2021/12/13 07:01:40;;;;;;;5.93;3.87;;;;;;;;;;5092265;28;21005;-72
2021/12/13 07:04:09;;;;;;;8.60;5.13;;;;;;;;;;5092434;28;20456;-73
2021/12/13 07:06:36;;;;;;;7.03;5.20;;;;;;;;;;5093057;28;20444;-72
2021/12/13 07:09:09;;;;;;;8.90;5.70;;;;;;;;;;5092328;28;20444;-72
2021/12/13 07:11:41;;;;;;;15.20;5.67;;;;;;;;;;5092324;28;20467;-72
2021/12/13 07:14:13;;;;;;;7.27;5.30;;;;;;;;;;5092293;28;20565;-72
2021/12/13 07:16:41;;;;;;;9.63;5.20;;;;;;;;;;5092688;28;20444;-72
2021/12/13 07:19:18;;;;;;;13.17;5.33;;;;;;;;;;5092403;28;20495;-72
2021/12/13 07:21:48;;;;;;;13.07;5.53;;;;;;;;;;5092281;28;20852;-72
2021/12/13 07:24:16;;;;;;;8.53;5.43;;;;;;;;;;5092111;28;20451;-72
2021/12/13 07:26:44;;;;;;;11.37;6.00;;;;;;;;;;5092251;28;20929;-72
2021/12/13 07:29:15;;;;;;;8.33;4.70;;;;;;;;;;5092124;28;20448;-73
2021/12/13 07:31:44;;;;;;;8.43;5.33;;;;;;;;;;5091841;28;20444;-71
2021/12/13 07:34:14;;;;;;;7.60;5.47;;;;;;;;;;5091809;28;20491;-72
2021/12/13 07:36:41;;;;;;;8.63;5.60;;;;;;;;;;5079203;28;20456;-72
2021/12/13 07:39:14;;;;;;;11.73;5.47;;;;;;;;;;5091732;28;20459;-72
2021/12/13 07:41:44;;;;;;;9.17;5.40;;;;;;;;;;5091878;28;20445;-72
2021/12/13 07:44:26;;;;;;;7.30;5.07;;;;;;;;;;5091549;28;20451;-72
2021/12/13 07:46:59;;;;;;;8.33;4.93;;;;;;;;;;5092144;28;20448;-71
2021/12/13 07:49:31;;;;;;;6.70;5.00;;;;;;;;;;5092125;28;20461;-72
2021/12/13 07:52:00;;;;;;;6.57;5.20;;;;;;;;;;5091443;28;20479;-72
2021/12/13 07:54:28;;;;;;;9.77;5.43;;;;;;;;;;5090905;28;20495;-72
2021/12/13 07:56:57;;;;;;;9.60;5.77;;;;;;;;;;5091543;28;20527;-70
2021/12/13 07:59:28;;;;;;;7.30;5.60;;;;;;;;;;5079170;28;20453;-72
2021/12/13 08:01:57;;;;;;;8.43;5.43;;;;;;;;;;5090644;28;20440;-70
2021/12/13 08:04:26;;;;;;;9.27;6.40;;;;;;;;;;5091844;28;20460;-72
2021/12/13 08:06:55;;;;;;;7.57;5.97;;;;;;;;;;5091943;28;20448;-72
2021/12/13 08:09:24;;;;;;;8.10;6.13;;;;;;;;;;5091243;28;20444;-73
2021/12/13 08:11:53;;;;;;;10.20;6.10;;;;;;;;;;5090777;28;20459;-72
2021/12/13 08:14:28;;;;;;;9.87;6.20;;;;;;;;;;5091085;28;20575;-72
2021/12/13 08:16:56;;;;;;;8.43;5.70;;;;;;;;;;5090989;28;20438;-70
2021/12/13 08:19:24;;;;;;;11.03;6.70;;;;;;;;;;5091904;28;20532;-72
2021/12/13 08:21:54;;;;;;;13.60;6.60;;;;;;;;;;5091021;28;20443;-72
2021/12/13 08:24:26;;;;;;;10.87;6.57;;;;;;;;;;5091755;28;20531;-73
2021/12/13 08:27:02;;;;;;;14.03;8.57;;;;;;;;;;5091422;28;20441;-72
2021/12/13 08:29:32;;;;;;;13.60;7.40;;;;;;;;;;5091701;28;20443;-72
2021/12/13 08:32:02;;;;;;;12.37;7.60;;;;;;;;;;5090570;28;20440;-72
2021/12/13 08:34:31;;;;;;;10.53;7.73;;;;;;;;;;5091130;28;20484;-72
2021/12/13 08:36:59;;;;;;;18.40;8.00;;;;;;;;;;5091059;28;20444;-74
2021/12/13 08:39:27;;;;;;;13.67;7.43;;;;;;;;;;5091325;28;20999;-71
2021/12/13 08:41:56;;;;;;;11.67;8.47;;;;;;;;;;5090655;28;20439;-70
2021/12/13 08:44:24;;;;;;;12.73;6.90;;;;;;;;;;5091598;28;20743;-74
2021/12/13 08:46:57;;;;;;;12.33;8.20;;;;;;;;;;5091347;28;20437;-73
2021/12/13 08:49:26;;;;;;;12.63;7.70;;;;;;;;;;5071350;28;20514;-72
2021/12/13 08:51:57;;;;;;;11.13;7.57;;;;;;;;;;5070784;28;20943;-73
2021/12/13 08:54:34;;;;;;;13.00;7.00;;;;;;;;;;5070952;28;20465;-73
2021/12/13 08:57:02;;;;;;;9.87;7.50;;;;;;;;;;5070064;28;20433;-72
2021/12/13 08:59:29;;;;;;;12.10;8.13;;;;;;;;;;5071130;28;20529;-72
2021/12/13 09:02:04;;;;;;;15.70;8.70;;;;;;;;;;5070045;28;20528;-72
2021/12/13 09:04:33;;;;;;;12.83;7.67;;;;;;;;;;5072183;28;20433;-73
2021/12/13 09:07:01;;;;;;;11.17;7.53;;;;;;;;;;5074724;28;20782;-73
2021/12/13 09:09:28;;;;;;;26.57;9.07;;;;;;;;;;5075228;28;20801;-72
2021/12/13 09:11:59;;;;;;;13.53;9.23;;;;;;;;;;5074043;28;20468;-71
2021/12/13 09:14:28;;;;;;;14.23;8.53;;;;;;;;;;5075138;28;20465;-71
2021/12/13 09:17:10;;;;;;;13.50;9.20;;;;;;;;;;5074654;28;20437;-70
2021/12/13 09:19:41;;;;;;;17.90;11.20;;;;;;;;;;5075435;28;20473;-72
2021/12/13 09:22:11;;;;;;;17.40;9.57;;;;;;;;;;5074107;28;20434;-73
2021/12/13 09:24:41;;;;;;;15.07;8.40;;;;;;;;;;5074827;28;20437;-72
2021/12/13 09:27:15;;;;;;;13.13;9.53;;;;;;;;;;5074290;28;20465;-73
2021/12/13 09:29:50;;;;;;;15.83;10.10;;;;;;;;;;5074947;28;20437;-72
2021/12/13 09:32:18;;;;;;;18.27;9.73;;;;;;;;;;5073957;28;20443;-74
2021/12/13 09:34:45;;;;;;;14.77;9.47;;;;;;;;;;5074445;28;20487;-73
2021/12/13 09:37:13;;;;;;;11.80;9.03;;;;;;;;;;5073945;28;20445;-73
2021/12/13 09:39:41;;;;;;;21.03;9.60;;;;;;;;;;5074088;28;20940;-72
2021/12/13 09:42:10;;;;;;;17.00;9.73;;;;;;;;;;5073689;28;20441;-73
2021/12/13 09:44:48;;;;;;;16.37;9.40;;;;;;;;;;5074586;28;20449;-73
2021/12/13 09:47:16;;;;;;;17.53;8.23;;;;;;;;;;5076932;28;20491;-73
2021/12/13 09:49:47;;;;;;;9.90;6.83;;;;;;;;;;5081258;28;20440;-73
2021/12/13 09:52:16;;;;;;;15.13;8.53;;;;;;;;;;5094064;28;20444;-72
2021/12/13 09:54:44;;;;;;;12.20;7.97;;;;;;;;;;5094740;28;20844;-73
2021/12/13 09:57:13;;;;;;;10.73;6.47;;;;;;;;;;5093570;28;20476;-73
2021/12/13 09:59:42;;;;;;;10.33;7.27;;;;;;;;;;5094558;28;20455;-73
2021/12/13 10:02:12;;;;;;;13.87;8.03;;;;;;;;;;5094438;28;20466;-73
2021/12/13 10:04:40;;;;;;;9.10;6.07;;;;;;;;;;5094527;28;20450;-73
2021/12/13 10:07:10;;;;;;;14.13;5.67;;;;;;;;;;5104004;28;20488;-73
2021/12/13 10:09:40;;;;;;;9.50;5.60;;;;;;;;;;5094525;28;20981;-72
2021/12/13 10:12:09;;;;;;;10.60;6.40;;;;;;;;;;5093133;28;20536;-72
2021/12/13 10:14:38;;;;;;;13.87;6.93;;;;;;;;;;5094196;28;20569;-73
2021/12/13 10:17:07;;;;;;;9.83;7.00;;;;;;;;;;5092645;28;20448;-72
2021/12/13 10:19:37;;;;;;;13.10;5.90;;;;;;;;;;5093942;28;20498;-73
2021/12/13 10:22:05;;;;;;;10.10;6.07;;;;;;;;;;5093215;28;20456;-73
2021/12/13 10:24:35;;;;;;;11.70;6.37;;;;;;;;;;5093928;28;20484;-71
2021/12/13 10:27:04;;;;;;;11.23;7.10;;;;;;;;;;5080345;28;20444;-73
2021/12/13 10:29:32;;;;;;;7.53;5.17;;;;;;;;;;5093726;28;20449;-73
2021/12/13 10:32:01;;;;;;;8.70;6.73;;;;;;;;;;5092861;28;20448;-72
2021/12/13 10:34:29;;;;;;;8.67;5.40;;;;;;;;;;5093311;28;20511;-72
2021/12/13 10:36:58;;;;;;;9.10;6.20;;;;;;;;;;5093067;28;20444;-72
2021/12/13 10:39:27;;;;;;;11.20;5.60;;;;;;;;;;5093416;28;20460;-72
2021/12/13 10:41:59;;;;;;;11.87;6.07;;;;;;;;;;5093224;28;20519;-69
2021/12/13 10:44:29;;;;;;;8.20;5.07;;;;;;;;;;5093399;28;20933;-71
2021/12/13 10:46:58;;;;;;;8.03;4.60;;;;;;;;;;5093003;28;20519;-72
2021/12/13 10:49:26;;;;;;;9.27;5.17;;;;;;;;;;5093674;28;20440;-71
2021/12/13 10:51:56;;;;;;;7.30;4.97;;;;;;;;;;5092962;28;20453;-73
2021/12/13 10:54:27;;;;;;;8.40;5.00;;;;;;;;;;5093385;28;20480;-72
2021/12/13 10:56:58;;;;;;;10.40;5.67;;;;;;;;;;5093620;28;20526;-72
2021/12/13 10:59:26;;;;;;;10.63;5.90;;;;;;;;;;5080182;28;20440;-72
2021/12/13 11:01:55;;;;;;;7.53;5.60;;;;;;;;;;5093081;28;20460;-72
2021/12/13 11:04:24;;;;;;;7.97;4.77;;;;;;;;;;5093393;28;20452;-72
2021/12/13 11:06:52;;;;;;;7.50;4.47;;;;;;;;;;5093479;28;20463;-72
2021/12/13 11:09:22;;;;;;;6.50;4.03;;;;;;;;;;5092107;28;20444;-72
2021/12/13 11:11:52;;;;;;;7.03;4.90;;;;;;;;;;5092583;28;20527;-73
2021/12/13 11:14:22;;;;;;;7.50;4.37;;;;;;;;;;5092389;28;20563;-72
2021/12/13 11:16:50;;;;;;;6.30;3.93;;;;;;;;;;5092880;28;20523;-72
2021/12/13 11:19:19;;;;;;;6.10;4.60;;;;;;;;;;5092225;28;20536;-72
2021/12/13 11:21:49;;;;;;;7.80;3.70;;;;;;;;;;5092446;28;20557;-72
2021/12/13 11:24:19;;;;;;;4.93;3.60;;;;;;;;;;5092364;28;20551;-73
2021/12/13 11:26:47;;;;;;;6.77;4.23;;;;;;;;;;5092836;28;20455;-73
2021/12/13 11:29:15;;;;;;;7.43;4.40;;;;;;;;;;5091172;28;20773;-73
2021/12/13 11:32:16;;;;;;;5.30;3.97;;;;;;;;;;5092171;28;20444;-72
2021/12/13 11:34:57;;;;;;;5.00;4.50;;;;;;;;;;5092471;28;20472;-72
2021/12/13 11:37:47;;;;;;;5.90;4.10;;;;;;;;;;5092860;28;20440;-73
2021/12/13 11:40:24;;;;;;;5.67;3.90;;;;;;;;;;5080053;28;20752;-72
2021/12/13 11:43:09;;;;;;;8.03;4.10;;;;;;;;;;5092672;28;20514;-72
2021/12/13 11:46:10;;;;;;;5.20;3.77;;;;;;;;;;5092515;28;20448;-72
2021/12/13 11:48:46;;;;;;;5.07;4.33;;;;;;;;;;5015083;28;20485;-72
2021/12/13 11:51:34;;;;;;;10.17;4.47;;;;;;;;;;5028895;28;20450;-72
2021/12/13 11:54:21;;;;;;;11.17;4.60;;;;;;;;;;5045400;28;20450;-72
2021/12/13 11:57:18;;;;;;;6.73;4.23;;;;;;;;;;5071981;28;20460;-72
2021/12/13 11:59:56;;;;;;;6.73;4.60;;;;;;;;;;5061213;28;20459;-72
2021/12/13 12:02:29;;;;;;;5.00;4.13;;;;;;;;;;5072214;28;20440;-73
2021/12/13 12:05:26;;;;;;;6.87;4.33;;;;;;;;;;5071176;28;20471;-72
2021/12/13 12:08:28;;;;;;;5.07;3.30;;;2.80;99.90;;;;;;5061980;28;20448;-72
2021/12/13 12:11:07;;;;;;;5.27;3.63;;;;;;;;;;5074348;28;20520;-69
2021/12/13 12:13:39;;;;;;;8.70;4.83;;;;;;;;;;5071402;28;20956;-72
2021/12/13 12:16:06;;;;;;;6.40;3.40;;;;;;;;;;5071212;28;20523;-72
2021/12/13 12:18:34;;;;;;;4.00;2.87;;;;;;;;;;5070908;28;20544;-72
2021/12/13 12:21:19;;;;;;;4.73;3.60;;;;;;;;;;5070451;28;20477;-72
2021/12/13 12:23:49;;;;;;;7.33;3.70;;;;;;;;;;5061723;28;20537;-72
2021/12/13 12:26:17;;;;;;;4.80;3.10;;;;;;;;;;5071005;28;20460;-72
2021/12/13 12:28:46;;;;;;;5.10;2.87;;;;;;;;;;5071367;28;20456;-73
2021/12/13 12:31:14;;;;;;;7.13;3.77;;;;;;;;;;5070450;28;20446;-72
2021/12/13 12:33:42;;;;;;;6.47;4.30;;;;;;;;;;5071367;28;20456;-72
2021/12/13 12:36:20;;;;;;;9.83;3.43;;;;;;;;;;5070793;28;20481;-72
2021/12/13 12:39:05;;;;;;;9.03;6.13;;;;;;;;;;5071152;28;20442;-73
2021/12/13 12:41:47;;;;;;;9.50;6.20;;;;;;;;;;5040200;28;20488;-72
2021/12/13 12:44:17;;;;;;;9.30;6.50;;;;;;;;;;5070636;28;20520;-72
2021/12/13 12:46:45;;;;;;;10.03;6.63;;;;;;;;;;5071280;28;20453;-72
2021/12/13 12:49:16;;;;;;;10.53;7.03;;;;;;;;;;5073172;28;20486;-72
2021/12/13 12:51:44;;;;;;;10.60;6.63;;;;;;;;;;5091146;28;20468;-72
2021/12/13 12:54:13;;;;;;;9.80;7.43;;;;;;;;;;5090892;28;20459;-72
2021/12/13 12:56:42;;;;;;;10.83;6.37;;;;;;;;;;5091443;28;20487;-72
2021/12/13 12:59:13;;;;;;;11.80;6.77;;;;;;;;;;5090777;28;20440;-74
2021/12/13 13:01:41;;;;;;;9.60;8.07;;;;;;;;;;5091117;28;20433;-72
2021/12/13 13:04:11;;;;;;;16.63;9.40;;;;;;;;;;5090208;28;20465;-72
2021/12/13 13:06:48;;;;;;;13.00;7.47;;;;;;;;;;5091063;28;20448;-72
2021/12/13 13:09:15;;;;;;;14.10;7.70;;;;;;;;;;5079024;28;20455;-73
2021/12/13 13:11:46;;;;;;;10.67;6.77;;;;;;;;;;5090583;28;20444;-72
2021/12/13 13:14:17;;;;;;;7.43;6.20;;;;;;;;;;5090287;28;20476;-73
2021/12/13 13:16:45;;;;;;;11.00;7.07;;;;;;;;;;5090556;28;20980;-72
2021/12/13 13:19:24;;;;;;;10.60;7.53;;;;;;;;;;5089998;28;20444;-73
2021/12/13 13:21:51;;;;;;;11.30;7.47;;;;;;;;;;5090779;28;20523;-73
2021/12/13 13:24:19;;;;;;;11.53;6.77;;;;;;;;;;5090469;28;20449;-73
2021/12/13 13:26:47;;;;;;;10.53;6.80;;;;;;;;;;5091120;28;20456;-72
2021/12/13 13:29:17;;;;;;;11.30;7.27;;;;;;;;;;5090243;28;20540;-73
2021/12/13 13:31:48;;;;;;;10.30;7.80;;;;;;;;;;5090483;28;20463;-72
2021/12/13 13:34:17;;;;;;;8.60;6.77;;;;;;;;;;5090095;28;20452;-73
2021/12/13 13:36:46;;;;;;;10.23;7.07;;;;;;;;;;5077601;28;20500;-73
2021/12/13 13:39:15;;;;;;;12.37;7.23;;;;;;;;;;5090242;28;20436;-73
2021/12/13 13:41:42;;;;;;;12.00;7.57;;;;;;;;;;5090036;28;20459;-73
2021/12/13 13:44:11;;;;;;;11.80;7.50;;;;;;;;;;5090260;28;20527;-73
2021/12/13 13:46:40;;;;;;;10.53;8.17;;;;;;;;;;5090999;28;20535;-75
2021/12/13 13:49:07;;;;;;;11.53;7.30;;;;;;;;;;5090284;28;20482;-73
2021/12/13 13:51:36;;;;;;;7.83;7.00;;;;;;;;;;5092213;28;20441;-73
2021/12/13 13:54:04;;;;;;;9.13;6.97;;;;;;;;;;5093357;28;20459;-73
2021/12/13 13:56:33;;;;;;;8.83;6.27;;;;;;;;;;5094561;28;20548;-72
2021/12/13 13:59:01;;;;;;;10.47;7.03;;;;;;;;;;5093607;28;20928;-74
2021/12/13 14:01:30;;;;;;;11.57;7.10;;;;;;;;;;5093805;28;20444;-75
2021/12/13 14:04:03;;;;;;;7.23;6.30;;;;;;;;;;5093768;28;20814;-73
2021/12/13 14:06:33;;;;;;;12.33;8.17;;;;;;;;;;5094448;28;20536;-74
2021/12/13 14:09:01;;;;;;;11.53;7.93;;;;;;;;;;5093457;28;20937;-73
2021/12/13 14:11:29;;;;;;;11.90;8.30;;;;;;;;;;5093839;28;20886;-73
2021/12/13 14:13:59;;;;;;;11.43;8.07;;;;;;;;;;5093390;28;20452;-73
2021/12/13 14:16:28;;;;;;;12.40;8.23;;;;;;;;;;5093809;28;20475;-72
2021/12/13 14:18:56;;;;;;;10.60;7.37;;;;;;;;;;5094069;28;20526;-70
2021/12/13 14:21:28;;;;;;;10.90;7.20;;;;;;;;;;5093574;28;20957;-72
2021/12/13 14:23:57;;;;;;;9.57;7.77;;;;;;;;;;5094119;28;20852;-70
2021/12/13 14:26:27;;;;;;;8.60;6.27;;;;;;;;;;5094438;28;20476;-73
2021/12/13 14:28:57;;;;;;;10.73;6.63;;;;;;;;;;5094287;28;20808;-74
2021/12/13 14:31:25;;;;;;;9.10;6.73;;;;;;;;;;5093615;28;20475;-74
2021/12/13 14:33:54;;;;;;;9.10;6.40;;;;;;;;;;5093898;28;20449;-73
2021/12/13 14:36:24;;;;;;;9.87;6.60;;;;;;;;;;5093944;28;20575;-73
2021/12/13 14:38:54;;;;;;;5.67;4.93;;;;;;;;;;5093936;28;20536;-74
2021/12/13 14:41:22;;;;;;;11.37;6.13;;;;;;;;;;5093399;28;20451;-73
2021/12/13 14:43:51;;;;;;;15.83;5.57;;;;;;;;;;5093490;28;20932;-73
2021/12/13 14:46:20;;;;;;;6.20;4.33;;;;;;;;;;5093080;28;20531;-73
2021/12/13 14:48:48;;;;;;;4.60;2.00;;;;;;;;;;5093029;28;20472;-73
2021/12/13 14:51:19;;;;;;;4.33;2.10;;;;;;;;;;5092665;28;20571;-73
2021/12/13 14:53:46;;;;;;;3.30;1.90;;;;;;;;;;5093476;28;20455;-73
2021/12/13 14:56:18;;;;;;;2.60;1.80;;;;;;;;;;5092616;28;20484;-74
2021/12/13 14:58:47;;;;;;;2.63;2.27;;;;;;;;;;5093527;28;20900;-73
2021/12/13 15:01:17;;;;;;;11.57;2.87;;;;;;;;;;5092390;28;20655;-73
2021/12/13 15:03:47;;;;;;;6.07;3.60;;;;;;;;;;5092560;28;20569;-74
2021/12/13 15:06:15;;;;;;;4.47;3.47;;;;;;;;;;5092633;28;20455;-74